Ana Sayfa
METAR-TAF:

METAR-TAF

Havaalanları :

Longyearbyen, Norveç

Enlem: 78-15N, Boylam: 015-28E, yükseklik: 2 m

Güncel hava durumu gözlemi

Rapor saat 20:50 UTC de 1 saat ve 8 dakika önce yapıldı.
Rüzgar değişken yönden 2 kt
Sıcaklık -2°C
Nem 63%
Basınç 1016 hPa
Görüş mesafesi 10 km veya daha fazla
2200 ft yükseklikte az bulutlu
6100 ft yükseklikte parçalı bulutlu

METAR: ENSB 212050Z VRB02KT 9999 FEW022 SCT061 M02/M08 Q1016 RMK WIND 1400FT 12009KT

Saat: 22:58 (21:58 UTC)

Tahmin

Ayın 21'si saat 18 UTC'den ayın 22'si saat 18 UTC'ye kadar geçerli Tahmin
Rüzgar doğu/güneydoğudan 8 kt
Görüş mesafesi 10 km veya daha fazla
4000 ft yükseklikte az bulutlu
6000 ft yükseklikte parçalı çok bulutlu

TAF: ENSB 2118/2218 12008KT 9999 FEW040 BKN060

4.000'den fazla havaalanı için hava durumu gözlemleri ve tahminleri (METAR ve TAF raporları).

Kullanılabilir istasyonlar harita üzerinde sarı ve kırmızı noktalarla gösterilir.

İstasyonun adını görmek için fareyi noktanın üzerinde gezdirin.

Sonrasında hava gözlem ve tahminlerini görmek için tıklayın.

Haritayı değiştirmek için: yaklaştırmak için siyah artı işaretli yeşil düğmeye ve uzaklaştırmak için de eksi işaretli düğmeye hızla tıklayın; bitişik haritalar için yeşil okları kullanın.


METAR-TAF: